THY9NK LTFM-LTDB
Flight info
| Callsign | THY9NK |
|---|---|
| Flight time | 1h 3m |
| Altitude | 35000 |
| Route | VICEN1H/18 VICEN UT57 VEVUD UT341 BAG UW75 AZBUL UL601 URGUP UW75 KEMER |
| Aircraft | A321/M-SDE3FGHIRWY/LB1 |
Departure
| Time | 2026-05-08 18:06 |
|---|---|
| Airport | İstanbul Airport (LTFM) |
Arrival
| Time | 2026-05-08 19:09 |
|---|---|
| Airport | Çukurova International Airport (LTDB) |
| Time | Latitude | Longitude | Altitude | Speed | Heading |
|---|---|---|---|---|---|
| 2026-05-08 17:22 | 41.25976 | 28.74953 | 334 ft | 0 kts | 251° |
| 2026-05-08 17:45 | 41.25977 | 28.74956 | 329 ft | 3 kts | 251° |
| 2026-05-08 17:45 | 41.25984 | 28.74990 | 330 ft | 4 kts | 261° |
| 2026-05-08 17:45 | 41.25986 | 28.75025 | 331 ft | 4 kts | 271° |
| 2026-05-08 17:46 | 41.25983 | 28.75060 | 331 ft | 4 kts | 288° |
| 2026-05-08 17:46 | 41.25972 | 28.75090 | 330 ft | 4 kts | 323° |
| 2026-05-08 17:46 | 41.25963 | 28.75097 | 329 ft | 0 kts | 341° |
| 2026-05-08 17:51 | 41.25965 | 28.75096 | 329 ft | 1 kts | 341° |
| 2026-05-08 17:52 | 41.25975 | 28.75091 | 330 ft | 4 kts | 341° |
| 2026-05-08 17:52 | 41.26037 | 28.75062 | 333 ft | 10 kts | 340° |
| 2026-05-08 17:52 | 41.26187 | 28.74997 | 330 ft | 12 kts | 349° |
| 2026-05-08 17:53 | 41.26248 | 28.75071 | 332 ft | 11 kts | 83° |
| 2026-05-08 17:53 | 41.26245 | 28.75121 | 334 ft | 0 kts | 96° |
| 2026-05-08 17:55 | 41.26245 | 28.75129 | 334 ft | 3 kts | 96° |
| 2026-05-08 17:55 | 41.26241 | 28.75179 | 334 ft | 8 kts | 95° |
| 2026-05-08 17:56 | 41.26242 | 28.75273 | 334 ft | 13 kts | 86° |
| 2026-05-08 17:56 | 41.26246 | 28.75339 | 334 ft | 0 kts | 86° |
| 2026-05-08 17:57 | 41.26247 | 28.75354 | 334 ft | 4 kts | 82° |
| 2026-05-08 17:57 | 41.26276 | 28.75388 | 334 ft | 9 kts | 19° |
| 2026-05-08 17:57 | 41.26375 | 28.75389 | 331 ft | 20 kts | 358° |
| 2026-05-08 17:57 | 41.26536 | 28.75383 | 332 ft | 24 kts | 358° |
| 2026-05-08 17:58 | 41.26699 | 28.75378 | 333 ft | 23 kts | 359° |
| 2026-05-08 17:58 | 41.26858 | 28.75377 | 330 ft | 23 kts | 359° |
| 2026-05-08 17:58 | 41.27019 | 28.75370 | 331 ft | 23 kts | 358° |
| 2026-05-08 17:58 | 41.27140 | 28.75368 | 332 ft | 12 kts | 359° |
| 2026-05-08 17:59 | 41.27228 | 28.75367 | 330 ft | 13 kts | 359° |
| 2026-05-08 17:59 | 41.27289 | 28.75366 | 334 ft | 14 kts | 359° |
| 2026-05-08 17:59 | 41.27352 | 28.75365 | 330 ft | 14 kts | 359° |
| 2026-05-08 17:59 | 41.27437 | 28.75364 | 330 ft | 15 kts | 359° |
| 2026-05-08 18:00 | 41.27541 | 28.75361 | 333 ft | 15 kts | 359° |
| 2026-05-08 18:00 | 41.27765 | 28.75354 | 330 ft | 17 kts | 359° |
| 2026-05-08 18:00 | 41.27901 | 28.75351 | 331 ft | 22 kts | 359° |
| 2026-05-08 18:01 | 41.28066 | 28.75348 | 333 ft | 26 kts | 359° |
| 2026-05-08 18:01 | 41.28261 | 28.75343 | 332 ft | 29 kts | 359° |
| 2026-05-08 18:01 | 41.28435 | 28.75338 | 332 ft | 25 kts | 359° |
| 2026-05-08 18:01 | 41.28608 | 28.75334 | 333 ft | 25 kts | 359° |
| 2026-05-08 18:02 | 41.28783 | 28.75330 | 332 ft | 25 kts | 359° |
| 2026-05-08 18:02 | 41.28922 | 28.75328 | 331 ft | 16 kts | 359° |
| 2026-05-08 18:02 | 41.28991 | 28.75379 | 330 ft | 8 kts | 73° |
| 2026-05-08 18:02 | 41.28993 | 28.75401 | 334 ft | 0 kts | 88° |
| 2026-05-08 18:03 | 41.28993 | 28.75402 | 334 ft | 1 kts | 88° |
| 2026-05-08 18:03 | 41.28993 | 28.75415 | 333 ft | 4 kts | 88° |
| 2026-05-08 18:04 | 41.28994 | 28.75493 | 334 ft | 13 kts | 89° |
| 2026-05-08 18:04 | 41.28971 | 28.75603 | 330 ft | 13 kts | 141° |
| 2026-05-08 18:04 | 41.28925 | 28.75618 | 333 ft | 0 kts | 178° |
| 2026-05-08 18:05 | 41.28795 | 28.75622 | 330 ft | 53 kts | 179° |
| 2026-05-08 18:05 | 41.28194 | 28.75632 | 331 ft | 118 kts | 179° |
| 2026-05-08 18:06 | 41.27190 | 28.75643 | 382 ft | 164 kts | 180° |
| 2026-05-08 18:06 | 41.26084 | 28.75658 | 1077 ft | 158 kts | 181° |
| 2026-05-08 18:06 | 41.24983 | 28.76003 | 1536 ft | 178 kts | 149° |
| 2026-05-08 18:06 | 41.23999 | 28.77187 | 1713 ft | 203 kts | 138° |
| 2026-05-08 18:07 | 41.22896 | 28.78510 | 1906 ft | 224 kts | 146° |
| 2026-05-08 18:07 | 41.21546 | 28.79750 | 2066 ft | 249 kts | 150° |
| 2026-05-08 18:07 | 41.20028 | 28.81011 | 2537 ft | 263 kts | 151° |
| 2026-05-08 18:07 | 41.18404 | 28.82123 | 3279 ft | 262 kts | 168° |
| 2026-05-08 18:08 | 41.16619 | 28.82282 | 4102 ft | 257 kts | 185° |
| 2026-05-08 18:08 | 41.14839 | 28.82152 | 4963 ft | 256 kts | 184° |
| 2026-05-08 18:08 | 41.13066 | 28.82027 | 5743 ft | 256 kts | 184° |
| 2026-05-08 18:08 | 41.11287 | 28.81902 | 6556 ft | 256 kts | 184° |
| 2026-05-08 18:09 | 41.09503 | 28.81780 | 7279 ft | 258 kts | 184° |
| 2026-05-08 18:09 | 41.07705 | 28.81659 | 7962 ft | 261 kts | 184° |
| 2026-05-08 18:09 | 41.05877 | 28.81540 | 8646 ft | 264 kts | 184° |
| 2026-05-08 18:09 | 41.04053 | 28.81425 | 9306 ft | 268 kts | 183° |
| 2026-05-08 18:10 | 41.02161 | 28.81309 | 10003 ft | 271 kts | 183° |
| 2026-05-08 18:10 | 41.00237 | 28.81191 | 10358 ft | 286 kts | 183° |
| 2026-05-08 18:10 | 40.98202 | 28.81235 | 10482 ft | 308 kts | 170° |
| 2026-05-08 18:10 | 40.96166 | 28.82342 | 10607 ft | 331 kts | 146° |
| 2026-05-08 18:11 | 40.94639 | 28.84700 | 10994 ft | 348 kts | 118° |
| 2026-05-08 18:11 | 40.93896 | 28.87828 | 11527 ft | 357 kts | 107° |
| 2026-05-08 18:11 | 40.93306 | 28.91036 | 12134 ft | 360 kts | 106° |
| 2026-05-08 18:11 | 40.92724 | 28.94220 | 12731 ft | 363 kts | 106° |
| 2026-05-08 18:12 | 40.92144 | 28.97374 | 13329 ft | 366 kts | 106° |
| 2026-05-08 18:12 | 40.91534 | 29.00656 | 13948 ft | 369 kts | 106° |
| 2026-05-08 18:12 | 40.90913 | 29.03964 | 14468 ft | 373 kts | 106° |
| 2026-05-08 18:12 | 40.90285 | 29.07311 | 14969 ft | 378 kts | 106° |
| 2026-05-08 18:13 | 40.89648 | 29.10713 | 15449 ft | 383 kts | 106° |
| 2026-05-08 18:13 | 40.89007 | 29.14151 | 15943 ft | 388 kts | 106° |
| 2026-05-08 18:13 | 40.88356 | 29.17630 | 16432 ft | 393 kts | 106° |
| 2026-05-08 18:13 | 40.87691 | 29.21159 | 16925 ft | 397 kts | 106° |
| 2026-05-08 18:14 | 40.87018 | 29.24723 | 17401 ft | 402 kts | 106° |
| 2026-05-08 18:14 | 40.86336 | 29.28328 | 17893 ft | 407 kts | 106° |
| 2026-05-08 18:14 | 40.85644 | 29.31974 | 18372 ft | 412 kts | 106° |
| 2026-05-08 18:14 | 40.84945 | 29.35654 | 18792 ft | 416 kts | 106° |
| 2026-05-08 18:15 | 40.84241 | 29.39377 | 19237 ft | 419 kts | 106° |
| 2026-05-08 18:15 | 40.83528 | 29.43127 | 19695 ft | 423 kts | 106° |
| 2026-05-08 18:15 | 40.82808 | 29.46904 | 20158 ft | 426 kts | 106° |
| 2026-05-08 18:15 | 40.82079 | 29.50713 | 20600 ft | 429 kts | 105° |
| 2026-05-08 18:16 | 40.81346 | 29.54531 | 21048 ft | 432 kts | 105° |
| 2026-05-08 18:16 | 40.80602 | 29.58395 | 21484 ft | 435 kts | 105° |
| 2026-05-08 18:16 | 40.79856 | 29.62276 | 21908 ft | 438 kts | 105° |
| 2026-05-08 18:16 | 40.79100 | 29.66195 | 22317 ft | 441 kts | 105° |
| 2026-05-08 18:17 | 40.78341 | 29.70123 | 22732 ft | 444 kts | 105° |
| 2026-05-08 18:17 | 40.77574 | 29.74088 | 23129 ft | 447 kts | 105° |
| 2026-05-08 18:17 | 40.76801 | 29.78068 | 23526 ft | 450 kts | 105° |
| 2026-05-08 18:17 | 40.76022 | 29.82077 | 23865 ft | 453 kts | 105° |
| 2026-05-08 18:18 | 40.75240 | 29.86112 | 24200 ft | 455 kts | 105° |
| 2026-05-08 18:18 | 40.74456 | 29.90163 | 24544 ft | 457 kts | 105° |
| 2026-05-08 18:18 | 40.73666 | 29.94232 | 24882 ft | 459 kts | 105° |
| 2026-05-08 18:18 | 40.72868 | 29.98315 | 25216 ft | 461 kts | 105° |
| 2026-05-08 18:19 | 40.72059 | 30.02419 | 25545 ft | 463 kts | 105° |
| 2026-05-08 18:19 | 40.71246 | 30.06519 | 25878 ft | 465 kts | 105° |
| 2026-05-08 18:19 | 40.70424 | 30.10660 | 26204 ft | 467 kts | 105° |
| 2026-05-08 18:19 | 40.69603 | 30.14801 | 26526 ft | 469 kts | 105° |
| 2026-05-08 18:20 | 40.68775 | 30.18977 | 26836 ft | 471 kts | 105° |
| 2026-05-08 18:20 | 40.67946 | 30.23157 | 27161 ft | 473 kts | 105° |
| 2026-05-08 18:20 | 40.67000 | 30.27307 | 27457 ft | 474 kts | 112° |
| 2026-05-08 18:20 | 40.65614 | 30.31247 | 27750 ft | 475 kts | 121° |
| 2026-05-08 18:21 | 40.63792 | 30.34869 | 28032 ft | 475 kts | 129° |
| 2026-05-08 18:21 | 40.61758 | 30.38302 | 28311 ft | 477 kts | 129° |
| 2026-05-08 18:21 | 40.59714 | 30.41759 | 28603 ft | 479 kts | 129° |
| 2026-05-08 18:21 | 40.57671 | 30.45226 | 28898 ft | 481 kts | 129° |
| 2026-05-08 18:22 | 40.55674 | 30.48710 | 29180 ft | 485 kts | 125° |
| 2026-05-08 18:22 | 40.53959 | 30.52610 | 29448 ft | 489 kts | 116° |
| 2026-05-08 18:22 | 40.52710 | 30.56780 | 29794 ft | 491 kts | 107° |
| 2026-05-08 18:22 | 40.51895 | 30.61071 | 30175 ft | 491 kts | 103° |
| 2026-05-08 18:23 | 40.51118 | 30.65488 | 30510 ft | 491 kts | 103° |
| 2026-05-08 18:23 | 40.50349 | 30.69801 | 30807 ft | 491 kts | 104° |
| 2026-05-08 18:23 | 40.49560 | 30.74164 | 31126 ft | 491 kts | 104° |
| 2026-05-08 18:23 | 40.48675 | 30.78497 | 31423 ft | 490 kts | 107° |
| 2026-05-08 18:24 | 40.47687 | 30.82777 | 31734 ft | 490 kts | 108° |
| 2026-05-08 18:24 | 40.46631 | 30.87030 | 32031 ft | 490 kts | 109° |
| 2026-05-08 18:24 | 40.45549 | 30.91279 | 32308 ft | 491 kts | 109° |
| 2026-05-08 18:24 | 40.44476 | 30.95536 | 32596 ft | 491 kts | 109° |
| 2026-05-08 18:25 | 40.43421 | 30.99806 | 32897 ft | 492 kts | 109° |
| 2026-05-08 18:25 | 40.42386 | 31.04083 | 33174 ft | 492 kts | 108° |
| 2026-05-08 18:25 | 40.41364 | 31.08363 | 33417 ft | 493 kts | 108° |
| 2026-05-08 18:25 | 40.40347 | 31.12664 | 33690 ft | 493 kts | 108° |
| 2026-05-08 18:26 | 40.39330 | 31.16963 | 33953 ft | 494 kts | 108° |
| 2026-05-08 18:26 | 40.38316 | 31.21265 | 34195 ft | 495 kts | 107° |
| 2026-05-08 18:26 | 40.37534 | 31.25646 | 34416 ft | 495 kts | 102° |
| 2026-05-08 18:26 | 40.36825 | 31.30081 | 34656 ft | 495 kts | 102° |
| 2026-05-08 18:27 | 40.36354 | 31.32999 | 34813 ft | 495 kts | 102° |
| 2026-05-08 18:27 | 40.35633 | 31.37432 | 35057 ft | 495 kts | 102° |
| 2026-05-08 18:27 | 40.34664 | 31.43338 | 35175 ft | 495 kts | 102° |
| 2026-05-08 18:27 | 40.33938 | 31.47750 | 35181 ft | 495 kts | 102° |
| 2026-05-08 18:28 | 40.32489 | 31.56565 | 35182 ft | 495 kts | 102° |
| 2026-05-08 18:28 | 40.31039 | 31.65372 | 35184 ft | 495 kts | 102° |
| 2026-05-08 18:29 | 40.29579 | 31.74183 | 35182 ft | 495 kts | 102° |
| 2026-05-08 18:29 | 40.28102 | 31.83006 | 35191 ft | 496 kts | 102° |
| 2026-05-08 18:30 | 40.26622 | 31.91834 | 35198 ft | 496 kts | 103° |
| 2026-05-08 18:30 | 40.24895 | 32.00582 | 35199 ft | 497 kts | 106° |
| 2026-05-08 18:31 | 40.22921 | 32.09260 | 35204 ft | 498 kts | 107° |
| 2026-05-08 18:31 | 40.20947 | 32.17882 | 35209 ft | 498 kts | 106° |
| 2026-05-08 18:32 | 40.19017 | 32.26650 | 35209 ft | 499 kts | 105° |
| 2026-05-08 18:32 | 40.17136 | 32.35331 | 35206 ft | 499 kts | 105° |
| 2026-05-08 18:33 | 40.15230 | 32.44055 | 35207 ft | 499 kts | 105° |
| 2026-05-08 18:33 | 40.13300 | 32.52773 | 35210 ft | 500 kts | 105° |
| 2026-05-08 18:34 | 40.11355 | 32.61494 | 35215 ft | 500 kts | 105° |
| 2026-05-08 18:34 | 40.09402 | 32.70226 | 35223 ft | 501 kts | 106° |
| 2026-05-08 18:35 | 40.06477 | 32.78427 | 35225 ft | 499 kts | 126° |
| 2026-05-08 18:35 | 40.02659 | 32.84090 | 35219 ft | 495 kts | 142° |
| 2026-05-08 18:36 | 39.96106 | 32.89934 | 35214 ft | 491 kts | 151° |
| 2026-05-08 18:36 | 39.90317 | 32.94679 | 35211 ft | 492 kts | 151° |
| 2026-05-08 18:37 | 39.84528 | 32.99415 | 35209 ft | 492 kts | 151° |
| 2026-05-08 18:37 | 39.78722 | 33.04154 | 35202 ft | 492 kts | 151° |
| 2026-05-08 18:38 | 39.73899 | 33.08076 | 35196 ft | 493 kts | 151° |
| 2026-05-08 18:38 | 39.68083 | 33.12790 | 35201 ft | 493 kts | 151° |
| 2026-05-08 18:39 | 39.62255 | 33.17510 | 35201 ft | 493 kts | 151° |
| 2026-05-08 18:39 | 39.56434 | 33.22227 | 35203 ft | 493 kts | 151° |
| 2026-05-08 18:40 | 39.50618 | 33.26931 | 35209 ft | 493 kts | 151° |
| 2026-05-08 18:40 | 39.44800 | 33.31626 | 35211 ft | 493 kts | 151° |
| 2026-05-08 18:41 | 39.38867 | 33.36038 | 35213 ft | 491 kts | 156° |
| 2026-05-08 18:41 | 39.32875 | 33.40286 | 35217 ft | 492 kts | 153° |
| 2026-05-08 18:42 | 39.26993 | 33.44841 | 35220 ft | 493 kts | 152° |
| 2026-05-08 18:42 | 39.21165 | 33.49524 | 35222 ft | 493 kts | 152° |
| 2026-05-08 18:43 | 39.15332 | 33.54163 | 35222 ft | 493 kts | 152° |
| 2026-05-08 18:43 | 39.09459 | 33.58751 | 35222 ft | 493 kts | 152° |
| 2026-05-08 18:44 | 39.03581 | 33.63302 | 35222 ft | 494 kts | 153° |
| 2026-05-08 18:44 | 38.97731 | 33.67829 | 35223 ft | 494 kts | 152° |
| 2026-05-08 18:45 | 38.91846 | 33.72398 | 35221 ft | 495 kts | 152° |
| 2026-05-08 18:45 | 38.85951 | 33.76966 | 35224 ft | 495 kts | 153° |
| 2026-05-08 18:46 | 38.80010 | 33.81554 | 35228 ft | 496 kts | 153° |
| 2026-05-08 18:46 | 38.74138 | 33.86085 | 35234 ft | 496 kts | 153° |
| 2026-05-08 18:47 | 38.68217 | 33.90646 | 35235 ft | 497 kts | 152° |
| 2026-05-08 18:47 | 38.62289 | 33.95203 | 35234 ft | 497 kts | 153° |
| 2026-05-08 18:48 | 38.56348 | 33.99758 | 35234 ft | 498 kts | 153° |
| 2026-05-08 18:48 | 38.50406 | 34.04301 | 35208 ft | 499 kts | 153° |
| 2026-05-08 18:49 | 38.47405 | 34.06586 | 34426 ft | 505 kts | 153° |
| 2026-05-08 18:49 | 38.44362 | 34.08894 | 33399 ft | 513 kts | 153° |
| 2026-05-08 18:49 | 38.41284 | 34.11228 | 32518 ft | 516 kts | 152° |
| 2026-05-08 18:49 | 38.38194 | 34.13571 | 31814 ft | 515 kts | 152° |
| 2026-05-08 18:50 | 38.35125 | 34.15897 | 31161 ft | 513 kts | 152° |
| 2026-05-08 18:50 | 38.32062 | 34.18217 | 30510 ft | 512 kts | 152° |
| 2026-05-08 18:50 | 38.29006 | 34.20531 | 29918 ft | 508 kts | 152° |
| 2026-05-08 18:50 | 38.25988 | 34.22814 | 29351 ft | 503 kts | 151° |
| 2026-05-08 18:51 | 38.22992 | 34.25081 | 28823 ft | 497 kts | 151° |
| 2026-05-08 18:51 | 38.20040 | 34.27313 | 28291 ft | 492 kts | 151° |
| 2026-05-08 18:51 | 38.17105 | 34.29526 | 27763 ft | 487 kts | 151° |
| 2026-05-08 18:51 | 38.14213 | 34.31704 | 27213 ft | 481 kts | 151° |
| 2026-05-08 18:52 | 38.11347 | 34.33861 | 26690 ft | 476 kts | 151° |
| 2026-05-08 18:52 | 38.08516 | 34.35990 | 26167 ft | 471 kts | 151° |
| 2026-05-08 18:52 | 38.05719 | 34.38090 | 25646 ft | 465 kts | 151° |
| 2026-05-08 18:52 | 38.02947 | 34.40169 | 25252 ft | 457 kts | 151° |
| 2026-05-08 18:53 | 38.00252 | 34.42192 | 25106 ft | 443 kts | 151° |
| 2026-05-08 18:53 | 37.97635 | 34.44157 | 25136 ft | 435 kts | 151° |
| 2026-05-08 18:53 | 37.95034 | 34.46103 | 25103 ft | 434 kts | 151° |
| 2026-05-08 18:53 | 37.92433 | 34.48045 | 25096 ft | 434 kts | 151° |
| 2026-05-08 18:54 | 37.89836 | 34.49982 | 24956 ft | 434 kts | 151° |
| 2026-05-08 18:54 | 37.87210 | 34.51955 | 24081 ft | 442 kts | 150° |
| 2026-05-08 18:54 | 37.84579 | 34.53957 | 23455 ft | 441 kts | 150° |
| 2026-05-08 18:54 | 37.81963 | 34.55960 | 22851 ft | 438 kts | 150° |
| 2026-05-08 18:55 | 37.76832 | 34.59891 | 21760 ft | 430 kts | 150° |
| 2026-05-08 18:55 | 37.74247 | 34.61861 | 21244 ft | 426 kts | 150° |
| 2026-05-08 18:55 | 37.71750 | 34.63754 | 20756 ft | 423 kts | 150° |
| 2026-05-08 18:56 | 37.69237 | 34.65657 | 20296 ft | 419 kts | 150° |
| 2026-05-08 18:56 | 37.66746 | 34.67541 | 19843 ft | 416 kts | 150° |
| 2026-05-08 18:56 | 37.64271 | 34.69415 | 19403 ft | 413 kts | 150° |
| 2026-05-08 18:56 | 37.61816 | 34.71272 | 18968 ft | 410 kts | 150° |
| 2026-05-08 18:57 | 37.59441 | 34.73197 | 18755 ft | 400 kts | 143° |
| 2026-05-08 18:57 | 37.57963 | 34.74623 | 18681 ft | 391 kts | 143° |
| 2026-05-08 18:57 | 37.55170 | 34.77321 | 18525 ft | 374 kts | 143° |
| 2026-05-08 18:57 | 37.53135 | 34.79288 | 18392 ft | 360 kts | 143° |
| 2026-05-08 18:58 | 37.51194 | 34.81163 | 17939 ft | 348 kts | 143° |
| 2026-05-08 18:58 | 37.49287 | 34.83002 | 17329 ft | 342 kts | 143° |
| 2026-05-08 18:58 | 37.47415 | 34.84802 | 16689 ft | 337 kts | 143° |
| 2026-05-08 18:58 | 37.45562 | 34.86583 | 16047 ft | 333 kts | 143° |
| 2026-05-08 18:59 | 37.43725 | 34.88347 | 15381 ft | 329 kts | 143° |
| 2026-05-08 18:59 | 37.41920 | 34.90081 | 14647 ft | 326 kts | 143° |
| 2026-05-08 18:59 | 37.40126 | 34.91801 | 13922 ft | 322 kts | 143° |
| 2026-05-08 18:59 | 37.38354 | 34.93499 | 13113 ft | 318 kts | 142° |
| 2026-05-08 19:00 | 37.36612 | 34.95173 | 12343 ft | 314 kts | 142° |
| 2026-05-08 19:00 | 37.34882 | 34.96834 | 11581 ft | 310 kts | 142° |
| 2026-05-08 19:00 | 37.33179 | 34.98463 | 10875 ft | 306 kts | 142° |
| 2026-05-08 19:00 | 37.31493 | 35.00073 | 10198 ft | 302 kts | 141° |
| 2026-05-08 19:01 | 37.29839 | 35.01656 | 9473 ft | 297 kts | 141° |
| 2026-05-08 19:01 | 37.28202 | 35.03224 | 8734 ft | 294 kts | 141° |
| 2026-05-08 19:01 | 37.26587 | 35.04771 | 8288 ft | 291 kts | 141° |
| 2026-05-08 19:01 | 37.24976 | 35.06315 | 7912 ft | 291 kts | 141° |
| 2026-05-08 19:02 | 37.23368 | 35.07853 | 7526 ft | 291 kts | 141° |
| 2026-05-08 19:02 | 37.21766 | 35.09386 | 7174 ft | 289 kts | 141° |
| 2026-05-08 19:02 | 37.20184 | 35.10896 | 6787 ft | 290 kts | 141° |
| 2026-05-08 19:02 | 37.18578 | 35.12423 | 6398 ft | 290 kts | 142° |
| 2026-05-08 19:03 | 37.16996 | 35.13926 | 6006 ft | 278 kts | 142° |
| 2026-05-08 19:03 | 37.15488 | 35.15358 | 5666 ft | 270 kts | 142° |
| 2026-05-08 19:03 | 37.13994 | 35.16780 | 5305 ft | 270 kts | 142° |
| 2026-05-08 19:03 | 37.12516 | 35.18186 | 4954 ft | 262 kts | 142° |
| 2026-05-08 19:04 | 37.11094 | 35.19519 | 4536 ft | 250 kts | 147° |
| 2026-05-08 19:04 | 37.09519 | 35.20376 | 4077 ft | 242 kts | 168° |
| 2026-05-08 19:04 | 37.07891 | 35.20547 | 3833 ft | 229 kts | 185° |
| 2026-05-08 19:04 | 37.06358 | 35.20128 | 3567 ft | 224 kts | 202° |
| 2026-05-08 19:05 | 37.05003 | 35.19223 | 3324 ft | 217 kts | 212° |
| 2026-05-08 19:05 | 37.03746 | 35.18259 | 3023 ft | 206 kts | 212° |
| 2026-05-08 19:05 | 37.02554 | 35.17347 | 2751 ft | 196 kts | 212° |
| 2026-05-08 19:05 | 37.01417 | 35.16478 | 2501 ft | 187 kts | 212° |
| 2026-05-08 19:06 | 37.00340 | 35.15655 | 2261 ft | 175 kts | 212° |
| 2026-05-08 19:06 | 36.99335 | 35.14887 | 2073 ft | 161 kts | 212° |
| 2026-05-08 19:06 | 36.98402 | 35.14175 | 1845 ft | 154 kts | 213° |
| 2026-05-08 19:06 | 36.97499 | 35.13485 | 1635 ft | 150 kts | 213° |
| 2026-05-08 19:07 | 36.96612 | 35.12806 | 1439 ft | 149 kts | 213° |
| 2026-05-08 19:07 | 36.95726 | 35.12129 | 1252 ft | 149 kts | 213° |
| 2026-05-08 19:07 | 36.94842 | 35.11455 | 1052 ft | 148 kts | 213° |
| 2026-05-08 19:07 | 36.93962 | 35.10783 | 856 ft | 148 kts | 212° |
| 2026-05-08 19:08 | 36.93083 | 35.10114 | 664 ft | 148 kts | 212° |
| 2026-05-08 19:08 | 36.92207 | 35.09446 | 475 ft | 147 kts | 212° |
| 2026-05-08 19:08 | 36.91334 | 35.08780 | 274 ft | 147 kts | 212° |
| 2026-05-08 19:08 | 36.90461 | 35.08115 | 87 ft | 147 kts | 212° |
| 2026-05-08 19:09 | 36.89676 | 35.07512 | 54 ft | 110 kts | 212° |
| 2026-05-08 19:09 | 36.89170 | 35.07120 | 59 ft | 61 kts | 211° |
| 2026-05-08 19:09 | 36.88921 | 35.06928 | 56 ft | 35 kts | 212° |
| 2026-05-08 19:09 | 36.88721 | 35.06775 | 58 ft | 33 kts | 211° |
| 2026-05-08 19:10 | 36.88568 | 35.06599 | 58 ft | 22 kts | 237° |
| 2026-05-08 19:10 | 36.88539 | 35.06537 | 58 ft | 0 kts | 243° |
| 2026-05-08 19:11 | 36.88539 | 35.06535 | 58 ft | 1 kts | 243° |
| 2026-05-08 19:12 | 36.88535 | 35.06527 | 58 ft | 2 kts | 243° |
| 2026-05-08 19:12 | 36.88530 | 35.06486 | 58 ft | 7 kts | 277° |
| 2026-05-08 19:12 | 36.88579 | 35.06433 | 58 ft | 13 kts | 349° |
| 2026-05-08 19:12 | 36.88680 | 35.06479 | 58 ft | 19 kts | 30° |
| 2026-05-08 19:13 | 36.88806 | 35.06573 | 59 ft | 24 kts | 31° |
| 2026-05-08 19:13 | 36.88966 | 35.06693 | 59 ft | 29 kts | 32° |
| 2026-05-08 19:13 | 36.89154 | 35.06842 | 55 ft | 35 kts | 32° |
| 2026-05-08 19:13 | 36.89308 | 35.06962 | 58 ft | 20 kts | 30° |
| 2026-05-08 19:14 | 36.89417 | 35.06928 | 59 ft | 16 kts | 307° |
| 2026-05-08 19:14 | 36.89479 | 35.06801 | 58 ft | 17 kts | 302° |
| 2026-05-08 19:14 | 36.89541 | 35.06680 | 58 ft | 9 kts | 302° |
| 2026-05-08 19:14 | 36.89591 | 35.06667 | 58 ft | 9 kts | 32° |
| 2026-05-08 19:15 | 36.89648 | 35.06712 | 56 ft | 10 kts | 32° |
| 2026-05-08 19:15 | 36.89712 | 35.06762 | 55 ft | 12 kts | 32° |
| 2026-05-08 19:15 | 36.89785 | 35.06818 | 58 ft | 13 kts | 32° |
| 2026-05-08 19:15 | 36.89862 | 35.06878 | 57 ft | 12 kts | 32° |
| 2026-05-08 19:16 | 36.89920 | 35.06949 | 57 ft | 12 kts | 59° |
| 2026-05-08 19:16 | 36.89974 | 35.07031 | 57 ft | 12 kts | 39° |
| 2026-05-08 19:16 | 36.90049 | 35.07092 | 55 ft | 13 kts | 31° |
| 2026-05-08 19:16 | 36.90090 | 35.07123 | 57 ft | 4 kts | 31° |
| 2026-05-08 19:17 | 36.90112 | 35.07119 | 53 ft | 4 kts | 329° |
| 2026-05-08 19:17 | 36.90126 | 35.07089 | 57 ft | 5 kts | 294° |
| 2026-05-08 19:17 | 36.90145 | 35.07047 | 56 ft | 6 kts | 301° |
| 2026-05-08 19:17 | 36.90158 | 35.07020 | 57 ft | 3 kts | 302° |
| 2026-05-08 19:18 | 36.90163 | 35.07011 | 57 ft | 0 kts | 302° |